sensor_id;sensor_type;location;lat;lon;timestamp;P1;durP1;ratioP1;P2;durP2;ratioP2
48327;SDS011;34136;51.022;7.082;2023-03-31T00:00:10;7.05;;;1.98;;
48327;SDS011;34136;51.022;7.082;2023-03-31T00:02:56;7.03;;;1.67;;
48327;SDS011;34136;51.022;7.082;2023-03-31T00:05:43;7.68;;;1.70;;
48327;SDS011;34136;51.022;7.082;2023-03-31T00:08:29;7.13;;;1.73;;
48327;SDS011;34136;51.022;7.082;2023-03-31T00:11:16;10.68;;;2.50;;
48327;SDS011;34136;51.022;7.082;2023-03-31T00:14:02;4.60;;;1.25;;
48327;SDS011;34136;51.022;7.082;2023-03-31T00:16:49;6.30;;;1.90;;
48327;SDS011;34136;51.022;7.082;2023-03-31T00:19:35;7.10;;;1.45;;
48327;SDS011;34136;51.022;7.082;2023-03-31T00:22:22;8.35;;;1.63;;
48327;SDS011;34136;51.022;7.082;2023-03-31T00:25:08;8.55;;;1.83;;
48327;SDS011;34136;51.022;7.082;2023-03-31T00:27:54;9.00;;;2.30;;
48327;SDS011;34136;51.022;7.082;2023-03-31T00:30:40;6.13;;;1.77;;
48327;SDS011;34136;51.022;7.082;2023-03-31T00:33:27;8.70;;;1.63;;
48327;SDS011;34136;51.022;7.082;2023-03-31T00:36:14;6.13;;;1.48;;
48327;SDS011;34136;51.022;7.082;2023-03-31T00:39:00;6.53;;;1.85;;
48327;SDS011;34136;51.022;7.082;2023-03-31T00:41:48;7.50;;;2.00;;
48327;SDS011;34136;51.022;7.082;2023-03-31T00:44:34;6.97;;;2.00;;
48327;SDS011;34136;51.022;7.082;2023-03-31T00:47:23;8.98;;;1.85;;
48327;SDS011;34136;51.022;7.082;2023-03-31T00:50:19;4.80;;;1.52;;
48327;SDS011;34136;51.022;7.082;2023-03-31T00:53:11;7.00;;;1.75;;
48327;SDS011;34136;51.022;7.082;2023-03-31T00:56:01;7.20;;;1.40;;
48327;SDS011;34136;51.022;7.082;2023-03-31T00:58:51;6.75;;;1.70;;
48327;SDS011;34136;51.022;7.082;2023-03-31T01:01:41;9.00;;;1.80;;
48327;SDS011;34136;51.022;7.082;2023-03-31T01:04:31;8.32;;;1.80;;
48327;SDS011;34136;51.022;7.082;2023-03-31T01:07:23;6.50;;;1.88;;
48327;SDS011;34136;51.022;7.082;2023-03-31T01:10:13;6.32;;;1.60;;
48327;SDS011;34136;51.022;7.082;2023-03-31T01:13:00;8.13;;;2.10;;
48327;SDS011;34136;51.022;7.082;2023-03-31T01:15:48;5.32;;;1.70;;
48327;SDS011;34136;51.022;7.082;2023-03-31T01:18:35;7.55;;;1.70;;
48327;SDS011;34136;51.022;7.082;2023-03-31T01:30:38;6.55;;;1.60;;
48327;SDS011;34136;51.022;7.082;2023-03-31T01:43:35;4.63;;;1.50;;
48327;SDS011;34136;51.022;7.082;2023-03-31T01:49:45;5.35;;;1.55;;
48327;SDS011;34136;51.022;7.082;2023-03-31T01:52:47;6.32;;;1.35;;
48327;SDS011;34136;51.022;7.082;2023-03-31T01:55:45;8.10;;;1.75;;
48327;SDS011;34136;51.022;7.082;2023-03-31T01:58:40;5.80;;;1.65;;
48327;SDS011;34136;51.022;7.082;2023-03-31T02:05:02;10.82;;;1.90;;
48327;SDS011;34136;51.022;7.082;2023-03-31T02:10:44;5.25;;;1.33;;
48327;SDS011;34136;51.022;7.082;2023-03-31T02:13:33;5.68;;;1.40;;
48327;SDS011;34136;51.022;7.082;2023-03-31T02:16:24;6.60;;;1.48;;
48327;SDS011;34136;51.022;7.082;2023-03-31T02:19:13;7.60;;;1.75;;
48327;SDS011;34136;51.022;7.082;2023-03-31T02:22:02;6.30;;;1.63;;
48327;SDS011;34136;51.022;7.082;2023-03-31T02:24:52;10.88;;;1.83;;
48327;SDS011;34136;51.022;7.082;2023-03-31T02:27:40;7.28;;;1.92;;
48327;SDS011;34136;51.022;7.082;2023-03-31T02:30:41;7.28;;;1.63;;
48327;SDS011;34136;51.022;7.082;2023-03-31T02:33:36;8.48;;;1.77;;
48327;SDS011;34136;51.022;7.082;2023-03-31T02:36:23;9.45;;;1.67;;
48327;SDS011;34136;51.022;7.082;2023-03-31T02:39:11;7.40;;;1.67;;
48327;SDS011;34136;51.022;7.082;2023-03-31T02:42:04;9.15;;;1.90;;
48327;SDS011;34136;51.022;7.082;2023-03-31T02:44:51;8.68;;;1.73;;
48327;SDS011;34136;51.022;7.082;2023-03-31T02:47:38;8.48;;;1.67;;
48327;SDS011;34136;51.022;7.082;2023-03-31T02:50:26;6.75;;;1.70;;
48327;SDS011;34136;51.022;7.082;2023-03-31T02:53:26;8.38;;;2.38;;
48327;SDS011;34136;51.022;7.082;2023-03-31T03:03:40;11.70;;;2.08;;
48327;SDS011;34136;51.022;7.082;2023-03-31T03:06:18;7.85;;;1.77;;
48327;SDS011;34136;51.022;7.082;2023-03-31T03:12:23;9.18;;;2.13;;
48327;SDS011;34136;51.022;7.082;2023-03-31T03:20:52;13.13;;;2.53;;
48327;SDS011;34136;51.022;7.082;2023-03-31T03:23:39;9.88;;;2.28;;
48327;SDS011;34136;51.022;7.082;2023-03-31T03:26:25;11.55;;;2.40;;
48327;SDS011;34136;51.022;7.082;2023-03-31T03:29:12;10.18;;;2.25;;
48327;SDS011;34136;51.022;7.082;2023-03-31T03:31:58;13.85;;;3.45;;
48327;SDS011;34136;51.022;7.082;2023-03-31T03:34:44;7.43;;;2.47;;
48327;SDS011;34136;51.022;7.082;2023-03-31T03:37:37;13.43;;;2.75;;
48327;SDS011;34136;51.022;7.082;2023-03-31T03:40:24;12.55;;;2.65;;
48327;SDS011;34136;51.022;7.082;2023-03-31T03:43:10;12.00;;;2.97;;
48327;SDS011;34136;51.022;7.082;2023-03-31T03:45:56;8.80;;;2.20;;
48327;SDS011;34136;51.022;7.082;2023-03-31T03:48:42;12.70;;;2.50;;
48327;SDS011;34136;51.022;7.082;2023-03-31T03:51:29;12.18;;;2.55;;
48327;SDS011;34136;51.022;7.082;2023-03-31T03:54:15;6.80;;;2.05;;
48327;SDS011;34136;51.022;7.082;2023-03-31T03:57:01;15.35;;;2.72;;
48327;SDS011;34136;51.022;7.082;2023-03-31T03:59:48;13.60;;;2.70;;
48327;SDS011;34136;51.022;7.082;2023-03-31T04:02:34;13.23;;;2.90;;
48327;SDS011;34136;51.022;7.082;2023-03-31T04:05:20;12.40;;;2.53;;
48327;SDS011;34136;51.022;7.082;2023-03-31T04:08:07;10.40;;;2.20;;
48327;SDS011;34136;51.022;7.082;2023-03-31T04:10:53;12.38;;;2.70;;
48327;SDS011;34136;51.022;7.082;2023-03-31T04:13:39;11.77;;;2.88;;
48327;SDS011;34136;51.022;7.082;2023-03-31T04:16:26;11.98;;;3.10;;
48327;SDS011;34136;51.022;7.082;2023-03-31T04:19:13;10.00;;;2.40;;
48327;SDS011;34136;51.022;7.082;2023-03-31T04:21:59;12.90;;;2.75;;
48327;SDS011;34136;51.022;7.082;2023-03-31T04:24:45;7.97;;;2.05;;
48327;SDS011;34136;51.022;7.082;2023-03-31T04:27:32;8.68;;;2.35;;
48327;SDS011;34136;51.022;7.082;2023-03-31T04:30:18;12.00;;;2.80;;
48327;SDS011;34136;51.022;7.082;2023-03-31T04:33:06;13.07;;;2.40;;
48327;SDS011;34136;51.022;7.082;2023-03-31T04:35:52;9.13;;;2.00;;
48327;SDS011;34136;51.022;7.082;2023-03-31T04:38:39;9.73;;;2.22;;
48327;SDS011;34136;51.022;7.082;2023-03-31T04:41:25;10.77;;;2.60;;
48327;SDS011;34136;51.022;7.082;2023-03-31T04:44:12;10.73;;;2.17;;
48327;SDS011;34136;51.022;7.082;2023-03-31T04:46:58;10.18;;;2.38;;
48327;SDS011;34136;51.022;7.082;2023-03-31T04:49:44;7.75;;;2.00;;
48327;SDS011;34136;51.022;7.082;2023-03-31T04:52:31;8.73;;;2.42;;
48327;SDS011;34136;51.022;7.082;2023-03-31T04:55:17;9.18;;;2.17;;
48327;SDS011;34136;51.022;7.082;2023-03-31T04:58:03;10.65;;;2.47;;
48327;SDS011;34136;51.022;7.082;2023-03-31T05:00:50;8.27;;;2.10;;
48327;SDS011;34136;51.022;7.082;2023-03-31T05:03:36;7.63;;;2.15;;
48327;SDS011;34136;51.022;7.082;2023-03-31T05:06:23;8.32;;;2.28;;
48327;SDS011;34136;51.022;7.082;2023-03-31T05:09:10;7.43;;;1.67;;
48327;SDS011;34136;51.022;7.082;2023-03-31T05:11:56;8.15;;;2.00;;
48327;SDS011;34136;51.022;7.082;2023-03-31T05:14:43;5.47;;;1.77;;
48327;SDS011;34136;51.022;7.082;2023-03-31T05:17:33;6.75;;;1.65;;
48327;SDS011;34136;51.022;7.082;2023-03-31T05:20:20;7.25;;;2.05;;
48327;SDS011;34136;51.022;7.082;2023-03-31T05:23:06;8.40;;;2.38;;
48327;SDS011;34136;51.022;7.082;2023-03-31T05:25:52;8.57;;;2.17;;
48327;SDS011;34136;51.022;7.082;2023-03-31T05:28:38;8.05;;;2.03;;
48327;SDS011;34136;51.022;7.082;2023-03-31T05:31:25;9.27;;;1.63;;
48327;SDS011;34136;51.022;7.082;2023-03-31T05:34:12;8.27;;;2.03;;
48327;SDS011;34136;51.022;7.082;2023-03-31T05:36:59;7.20;;;2.15;;
48327;SDS011;34136;51.022;7.082;2023-03-31T05:39:45;8.90;;;1.67;;
48327;SDS011;34136;51.022;7.082;2023-03-31T05:42:32;6.57;;;1.60;;
48327;SDS011;34136;51.022;7.082;2023-03-31T05:45:18;6.35;;;1.40;;
48327;SDS011;34136;51.022;7.082;2023-03-31T05:48:04;4.43;;;1.42;;
48327;SDS011;34136;51.022;7.082;2023-03-31T05:50:56;7.30;;;1.80;;
48327;SDS011;34136;51.022;7.082;2023-03-31T05:53:43;10.15;;;1.42;;
48327;SDS011;34136;51.022;7.082;2023-03-31T05:56:31;6.93;;;2.00;;
48327;SDS011;34136;51.022;7.082;2023-03-31T05:59:17;8.13;;;1.77;;
48327;SDS011;34136;51.022;7.082;2023-03-31T06:02:03;6.00;;;1.15;;
48327;SDS011;34136;51.022;7.082;2023-03-31T06:04:51;5.65;;;1.63;;
48327;SDS011;34136;51.022;7.082;2023-03-31T06:07:38;8.52;;;1.70;;
48327;SDS011;34136;51.022;7.082;2023-03-31T06:10:24;6.97;;;1.30;;
48327;SDS011;34136;51.022;7.082;2023-03-31T06:13:10;4.65;;;1.45;;
48327;SDS011;34136;51.022;7.082;2023-03-31T06:15:57;7.28;;;1.90;;
48327;SDS011;34136;51.022;7.082;2023-03-31T06:18:45;8.50;;;2.20;;
48327;SDS011;34136;51.022;7.082;2023-03-31T06:21:31;5.40;;;1.35;;
48327;SDS011;34136;51.022;7.082;2023-03-31T06:24:18;7.95;;;1.60;;
48327;SDS011;34136;51.022;7.082;2023-03-31T06:27:05;5.40;;;1.02;;
48327;SDS011;34136;51.022;7.082;2023-03-31T06:29:51;4.68;;;1.42;;
48327;SDS011;34136;51.022;7.082;2023-03-31T06:32:37;5.70;;;1.33;;
48327;SDS011;34136;51.022;7.082;2023-03-31T06:35:24;4.00;;;1.27;;
48327;SDS011;34136;51.022;7.082;2023-03-31T06:38:10;6.10;;;1.20;;
48327;SDS011;34136;51.022;7.082;2023-03-31T06:40:56;4.32;;;1.02;;
48327;SDS011;34136;51.022;7.082;2023-03-31T06:43:42;5.78;;;1.27;;
48327;SDS011;34136;51.022;7.082;2023-03-31T06:46:29;2.97;;;0.90;;
48327;SDS011;34136;51.022;7.082;2023-03-31T06:49:15;3.65;;;0.90;;
48327;SDS011;34136;51.022;7.082;2023-03-31T06:52:01;3.33;;;1.00;;
48327;SDS011;34136;51.022;7.082;2023-03-31T06:54:48;5.28;;;1.60;;
48327;SDS011;34136;51.022;7.082;2023-03-31T06:57:34;4.88;;;1.23;;
48327;SDS011;34136;51.022;7.082;2023-03-31T07:00:20;3.85;;;1.48;;
48327;SDS011;34136;51.022;7.082;2023-03-31T07:03:07;2.95;;;1.05;;
48327;SDS011;34136;51.022;7.082;2023-03-31T07:05:54;3.38;;;1.10;;
48327;SDS011;34136;51.022;7.082;2023-03-31T07:08:41;3.22;;;1.20;;
48327;SDS011;34136;51.022;7.082;2023-03-31T07:11:27;3.40;;;1.20;;
48327;SDS011;34136;51.022;7.082;2023-03-31T07:14:13;2.65;;;0.90;;
48327;SDS011;34136;51.022;7.082;2023-03-31T07:17:00;3.35;;;1.10;;
48327;SDS011;34136;51.022;7.082;2023-03-31T07:19:46;5.22;;;1.20;;
48327;SDS011;34136;51.022;7.082;2023-03-31T07:22:32;3.63;;;0.98;;
48327;SDS011;34136;51.022;7.082;2023-03-31T07:25:19;3.45;;;0.90;;
48327;SDS011;34136;51.022;7.082;2023-03-31T07:28:05;2.65;;;0.80;;
48327;SDS011;34136;51.022;7.082;2023-03-31T07:30:51;1.85;;;0.60;;
48327;SDS011;34136;51.022;7.082;2023-03-31T07:33:37;1.95;;;0.90;;
48327;SDS011;34136;51.022;7.082;2023-03-31T07:36:24;2.03;;;0.65;;
48327;SDS011;34136;51.022;7.082;2023-03-31T07:39:10;1.05;;;0.47;;
48327;SDS011;34136;51.022;7.082;2023-03-31T07:41:56;1.33;;;0.52;;
48327;SDS011;34136;51.022;7.082;2023-03-31T07:44:46;1.58;;;0.70;;
48327;SDS011;34136;51.022;7.082;2023-03-31T07:47:32;1.50;;;0.60;;
48327;SDS011;34136;51.022;7.082;2023-03-31T07:50:19;3.88;;;0.68;;
48327;SDS011;34136;51.022;7.082;2023-03-31T07:53:09;2.88;;;0.60;;
48327;SDS011;34136;51.022;7.082;2023-03-31T07:55:55;1.55;;;0.57;;
48327;SDS011;34136;51.022;7.082;2023-03-31T07:58:42;1.63;;;0.45;;
48327;SDS011;34136;51.022;7.082;2023-03-31T08:01:28;1.40;;;0.45;;
48327;SDS011;34136;51.022;7.082;2023-03-31T08:04:15;1.92;;;0.70;;
48327;SDS011;34136;51.022;7.082;2023-03-31T08:07:02;1.40;;;0.40;;
48327;SDS011;34136;51.022;7.082;2023-03-31T08:09:49;1.75;;;0.50;;
48327;SDS011;34136;51.022;7.082;2023-03-31T08:12:35;1.70;;;0.70;;
48327;SDS011;34136;51.022;7.082;2023-03-31T08:15:21;1.40;;;0.60;;
48327;SDS011;34136;51.022;7.082;2023-03-31T08:18:08;1.30;;;0.50;;
48327;SDS011;34136;51.022;7.082;2023-03-31T08:20:54;2.80;;;1.00;;
48327;SDS011;34136;51.022;7.082;2023-03-31T08:23:41;2.72;;;0.70;;
48327;SDS011;34136;51.022;7.082;2023-03-31T08:26:27;2.47;;;0.80;;
48327;SDS011;34136;51.022;7.082;2023-03-31T08:29:13;4.40;;;0.65;;
48327;SDS011;34136;51.022;7.082;2023-03-31T08:32:00;3.33;;;0.98;;
48327;SDS011;34136;51.022;7.082;2023-03-31T08:34:46;1.70;;;0.80;;
48327;SDS011;34136;51.022;7.082;2023-03-31T08:37:32;1.77;;;0.70;;
48327;SDS011;34136;51.022;7.082;2023-03-31T08:40:20;3.50;;;1.33;;
48327;SDS011;34136;51.022;7.082;2023-03-31T08:43:10;3.20;;;0.85;;
48327;SDS011;34136;51.022;7.082;2023-03-31T08:46:01;2.75;;;0.70;;
48327;SDS011;34136;51.022;7.082;2023-03-31T08:48:56;3.35;;;1.00;;
48327;SDS011;34136;51.022;7.082;2023-03-31T08:51:48;3.70;;;0.93;;
48327;SDS011;34136;51.022;7.082;2023-03-31T08:54:43;2.47;;;1.25;;
48327;SDS011;34136;51.022;7.082;2023-03-31T08:57:38;3.05;;;0.93;;
48327;SDS011;34136;51.022;7.082;2023-03-31T09:00:38;4.68;;;1.48;;
48327;SDS011;34136;51.022;7.082;2023-03-31T09:03:34;6.97;;;1.77;;
48327;SDS011;34136;51.022;7.082;2023-03-31T09:12:19;8.43;;;1.60;;
48327;SDS011;34136;51.022;7.082;2023-03-31T09:15:11;5.32;;;2.10;;
48327;SDS011;34136;51.022;7.082;2023-03-31T09:18:05;9.07;;;2.38;;
48327;SDS011;34136;51.022;7.082;2023-03-31T09:26:58;6.05;;;1.85;;
48327;SDS011;34136;51.022;7.082;2023-03-31T09:29:55;10.40;;;2.60;;
48327;SDS011;34136;51.022;7.082;2023-03-31T09:49:57;9.85;;;2.67;;
48327;SDS011;34136;51.022;7.082;2023-03-31T09:52:51;8.80;;;2.30;;
48327;SDS011;34136;51.022;7.082;2023-03-31T09:55:42;12.57;;;2.67;;
48327;SDS011;34136;51.022;7.082;2023-03-31T09:58:44;8.10;;;2.15;;
48327;SDS011;34136;51.022;7.082;2023-03-31T10:01:31;6.38;;;2.08;;
48327;SDS011;34136;51.022;7.082;2023-03-31T10:04:19;10.18;;;2.55;;
48327;SDS011;34136;51.022;7.082;2023-03-31T10:07:12;9.75;;;2.30;;
48327;SDS011;34136;51.022;7.082;2023-03-31T10:10:08;7.65;;;2.17;;
48327;SDS011;34136;51.022;7.082;2023-03-31T10:13:01;10.65;;;2.53;;
48327;SDS011;34136;51.022;7.082;2023-03-31T10:15:59;9.73;;;2.30;;
48327;SDS011;34136;51.022;7.082;2023-03-31T10:18:47;10.00;;;2.20;;
48327;SDS011;34136;51.022;7.082;2023-03-31T10:21:34;15.23;;;3.00;;
48327;SDS011;34136;51.022;7.082;2023-03-31T10:24:22;8.60;;;2.47;;
48327;SDS011;34136;51.022;7.082;2023-03-31T10:27:27;10.15;;;2.55;;
48327;SDS011;34136;51.022;7.082;2023-03-31T10:30:32;12.30;;;2.75;;
48327;SDS011;34136;51.022;7.082;2023-03-31T10:33:25;11.13;;;2.65;;
48327;SDS011;34136;51.022;7.082;2023-03-31T10:39:05;7.57;;;2.20;;
48327;SDS011;34136;51.022;7.082;2023-03-31T10:41:52;13.25;;;2.63;;
48327;SDS011;34136;51.022;7.082;2023-03-31T10:44:38;10.77;;;2.70;;
48327;SDS011;34136;51.022;7.082;2023-03-31T10:47:24;9.98;;;2.78;;
48327;SDS011;34136;51.022;7.082;2023-03-31T10:50:14;10.38;;;2.50;;
48327;SDS011;34136;51.022;7.082;2023-03-31T10:53:05;10.20;;;2.25;;
48327;SDS011;34136;51.022;7.082;2023-03-31T11:05:46;9.35;;;2.50;;
48327;SDS011;34136;51.022;7.082;2023-03-31T11:23:39;6.63;;;1.50;;
48327;SDS011;34136;51.022;7.082;2023-03-31T11:38:53;2.95;;;0.90;;
48327;SDS011;34136;51.022;7.082;2023-03-31T11:44:57;6.88;;;1.02;;
48327;SDS011;34136;51.022;7.082;2023-03-31T11:47:49;4.32;;;1.40;;
48327;SDS011;34136;51.022;7.082;2023-03-31T11:50:40;3.25;;;1.08;;
48327;SDS011;34136;51.022;7.082;2023-03-31T11:53:31;2.30;;;0.82;;
48327;SDS011;34136;51.022;7.082;2023-03-31T11:56:21;5.35;;;1.40;;
48327;SDS011;34136;51.022;7.082;2023-03-31T11:59:10;6.55;;;1.85;;
48327;SDS011;34136;51.022;7.082;2023-03-31T12:02:03;3.97;;;1.05;;
48327;SDS011;34136;51.022;7.082;2023-03-31T12:05:28;5.43;;;1.60;;
48327;SDS011;34136;51.022;7.082;2023-03-31T12:08:27;5.60;;;1.42;;
48327;SDS011;34136;51.022;7.082;2023-03-31T12:11:26;6.47;;;2.00;;
48327;SDS011;34136;51.022;7.082;2023-03-31T12:14:24;7.53;;;2.03;;
48327;SDS011;34136;51.022;7.082;2023-03-31T12:17:18;7.22;;;1.80;;
48327;SDS011;34136;51.022;7.082;2023-03-31T12:23:21;9.20;;;2.28;;
48327;SDS011;34136;51.022;7.082;2023-03-31T12:28:58;7.93;;;2.80;;
48327;SDS011;34136;51.022;7.082;2023-03-31T12:31:48;10.15;;;2.72;;
48327;SDS011;34136;51.022;7.082;2023-03-31T12:34:41;11.68;;;3.10;;
48327;SDS011;34136;51.022;7.082;2023-03-31T12:38:17;12.95;;;3.30;;
48327;SDS011;34136;51.022;7.082;2023-03-31T12:50:41;16.27;;;4.10;;
48327;SDS011;34136;51.022;7.082;2023-03-31T12:56:16;19.95;;;8.82;;
48327;SDS011;34136;51.022;7.082;2023-03-31T12:59:23;13.32;;;4.85;;
48327;SDS011;34136;51.022;7.082;2023-03-31T13:02:23;13.85;;;7.07;;
48327;SDS011;34136;51.022;7.082;2023-03-31T13:11:39;9.25;;;3.10;;
48327;SDS011;34136;51.022;7.082;2023-03-31T13:14:30;8.93;;;2.63;;
48327;SDS011;34136;51.022;7.082;2023-03-31T13:17:23;11.48;;;2.80;;
48327;SDS011;34136;51.022;7.082;2023-03-31T13:20:23;11.90;;;2.28;;
48327;SDS011;34136;51.022;7.082;2023-03-31T13:23:20;9.60;;;2.20;;
48327;SDS011;34136;51.022;7.082;2023-03-31T13:26:25;9.23;;;2.15;;
48327;SDS011;34136;51.022;7.082;2023-03-31T13:29:21;6.85;;;1.73;;
48327;SDS011;34136;51.022;7.082;2023-03-31T13:32:20;8.73;;;2.13;;
48327;SDS011;34136;51.022;7.082;2023-03-31T13:35:13;10.95;;;2.28;;
48327;SDS011;34136;51.022;7.082;2023-03-31T13:59:36;7.03;;;2.30;;
48327;SDS011;34136;51.022;7.082;2023-03-31T14:02:58;8.30;;;2.10;;
48327;SDS011;34136;51.022;7.082;2023-03-31T14:06:00;7.20;;;2.00;;
48327;SDS011;34136;51.022;7.082;2023-03-31T14:08:56;8.07;;;2.38;;
48327;SDS011;34136;51.022;7.082;2023-03-31T14:11:48;9.50;;;2.45;;
48327;SDS011;34136;51.022;7.082;2023-03-31T14:14:34;5.78;;;2.05;;
48327;SDS011;34136;51.022;7.082;2023-03-31T14:17:26;6.30;;;2.00;;
48327;SDS011;34136;51.022;7.082;2023-03-31T14:20:22;7.85;;;2.05;;
48327;SDS011;34136;51.022;7.082;2023-03-31T14:30:08;9.77;;;2.22;;
48327;SDS011;34136;51.022;7.082;2023-03-31T14:36:19;8.10;;;2.10;;
48327;SDS011;34136;51.022;7.082;2023-03-31T14:39:35;6.25;;;1.33;;
48327;SDS011;34136;51.022;7.082;2023-03-31T14:45:25;4.85;;;1.30;;
48327;SDS011;34136;51.022;7.082;2023-03-31T14:48:15;3.75;;;0.98;;
48327;SDS011;34136;51.022;7.082;2023-03-31T14:51:02;3.33;;;1.00;;
48327;SDS011;34136;51.022;7.082;2023-03-31T14:54:00;3.95;;;1.08;;
48327;SDS011;34136;51.022;7.082;2023-03-31T14:56:48;3.25;;;1.15;;
48327;SDS011;34136;51.022;7.082;2023-03-31T14:59:37;2.88;;;1.10;;
48327;SDS011;34136;51.022;7.082;2023-03-31T15:02:36;2.97;;;1.08;;
48327;SDS011;34136;51.022;7.082;2023-03-31T15:05:31;4.38;;;1.08;;
48327;SDS011;34136;51.022;7.082;2023-03-31T15:08:20;5.80;;;1.40;;
48327;SDS011;34136;51.022;7.082;2023-03-31T15:11:08;7.13;;;1.52;;
48327;SDS011;34136;51.022;7.082;2023-03-31T15:14:05;3.53;;;1.08;;
48327;SDS011;34136;51.022;7.082;2023-03-31T16:04:56;12.15;;;3.72;;
48327;SDS011;34136;51.022;7.082;2023-03-31T16:07:44;14.35;;;3.90;;
48327;SDS011;34136;51.022;7.082;2023-03-31T16:10:30;13.20;;;3.10;;
48327;SDS011;34136;51.022;7.082;2023-03-31T16:13:17;11.13;;;2.67;;
48327;SDS011;34136;51.022;7.082;2023-03-31T16:16:07;8.75;;;2.75;;
48327;SDS011;34136;51.022;7.082;2023-03-31T16:19:07;7.75;;;2.08;;
48327;SDS011;34136;51.022;7.082;2023-03-31T16:21:54;6.15;;;1.45;;
48327;SDS011;34136;51.022;7.082;2023-03-31T16:24:43;8.73;;;1.73;;
48327;SDS011;34136;51.022;7.082;2023-03-31T16:27:29;5.70;;;1.50;;
48327;SDS011;34136;51.022;7.082;2023-03-31T16:30:19;4.75;;;1.17;;
48327;SDS011;34136;51.022;7.082;2023-03-31T16:33:26;4.63;;;1.85;;
48327;SDS011;34136;51.022;7.082;2023-03-31T16:36:15;4.07;;;1.00;;
48327;SDS011;34136;51.022;7.082;2023-03-31T16:39:01;6.10;;;1.17;;
48327;SDS011;34136;51.022;7.082;2023-03-31T16:41:47;5.88;;;1.30;;
48327;SDS011;34136;51.022;7.082;2023-03-31T16:44:33;5.88;;;1.23;;
48327;SDS011;34136;51.022;7.082;2023-03-31T16:47:19;4.78;;;1.50;;
48327;SDS011;34136;51.022;7.082;2023-03-31T16:50:06;5.10;;;1.27;;
48327;SDS011;34136;51.022;7.082;2023-03-31T16:52:53;5.03;;;1.17;;
48327;SDS011;34136;51.022;7.082;2023-03-31T16:55:39;3.00;;;0.90;;
48327;SDS011;34136;51.022;7.082;2023-03-31T16:58:26;6.38;;;1.20;;
48327;SDS011;34136;51.022;7.082;2023-03-31T17:01:13;5.25;;;1.20;;
48327;SDS011;34136;51.022;7.082;2023-03-31T17:03:59;4.65;;;1.05;;
48327;SDS011;34136;51.022;7.082;2023-03-31T17:06:45;5.25;;;1.20;;
48327;SDS011;34136;51.022;7.082;2023-03-31T17:09:32;3.75;;;1.00;;
48327;SDS011;34136;51.022;7.082;2023-03-31T17:12:18;2.63;;;1.08;;
48327;SDS011;34136;51.022;7.082;2023-03-31T17:15:04;4.28;;;1.40;;
48327;SDS011;34136;51.022;7.082;2023-03-31T17:17:51;6.32;;;1.65;;
48327;SDS011;34136;51.022;7.082;2023-03-31T17:20:38;5.43;;;1.50;;
48327;SDS011;34136;51.022;7.082;2023-03-31T17:23:24;6.22;;;1.67;;
48327;SDS011;34136;51.022;7.082;2023-03-31T17:26:11;4.05;;;1.70;;
48327;SDS011;34136;51.022;7.082;2023-03-31T17:28:57;6.40;;;1.45;;
48327;SDS011;34136;51.022;7.082;2023-03-31T17:31:44;5.28;;;1.42;;
48327;SDS011;34136;51.022;7.082;2023-03-31T17:34:30;4.32;;;1.45;;
48327;SDS011;34136;51.022;7.082;2023-03-31T17:40:47;3.67;;;1.10;;
48327;SDS011;34136;51.022;7.082;2023-03-31T17:59:21;6.55;;;1.65;;
48327;SDS011;34136;51.022;7.082;2023-03-31T18:03:06;5.70;;;1.23;;
48327;SDS011;34136;51.022;7.082;2023-03-31T18:05:59;4.43;;;1.23;;
48327;SDS011;34136;51.022;7.082;2023-03-31T18:08:54;5.38;;;1.25;;
48327;SDS011;34136;51.022;7.082;2023-03-31T18:11:41;4.55;;;1.33;;
48327;SDS011;34136;51.022;7.082;2023-03-31T18:14:27;6.90;;;1.17;;
48327;SDS011;34136;51.022;7.082;2023-03-31T18:17:14;4.28;;;1.13;;
48327;SDS011;34136;51.022;7.082;2023-03-31T18:20:00;4.50;;;1.20;;
48327;SDS011;34136;51.022;7.082;2023-03-31T18:22:46;3.03;;;0.98;;
48327;SDS011;34136;51.022;7.082;2023-03-31T18:25:32;5.35;;;1.42;;
48327;SDS011;34136;51.022;7.082;2023-03-31T18:28:18;6.10;;;1.50;;
48327;SDS011;34136;51.022;7.082;2023-03-31T18:31:05;3.83;;;1.08;;
48327;SDS011;34136;51.022;7.082;2023-03-31T18:33:53;6.25;;;1.65;;
48327;SDS011;34136;51.022;7.082;2023-03-31T18:36:39;4.20;;;1.35;;
48327;SDS011;34136;51.022;7.082;2023-03-31T18:39:26;4.80;;;1.42;;
48327;SDS011;34136;51.022;7.082;2023-03-31T18:42:12;3.95;;;1.38;;
48327;SDS011;34136;51.022;7.082;2023-03-31T18:44:58;5.47;;;1.20;;
48327;SDS011;34136;51.022;7.082;2023-03-31T18:47:44;4.95;;;1.30;;
48327;SDS011;34136;51.022;7.082;2023-03-31T18:50:31;4.20;;;1.40;;
48327;SDS011;34136;51.022;7.082;2023-03-31T18:53:17;5.72;;;1.42;;
48327;SDS011;34136;51.022;7.082;2023-03-31T18:56:04;4.28;;;1.05;;
48327;SDS011;34136;51.022;7.082;2023-03-31T18:58:51;5.15;;;1.10;;
48327;SDS011;34136;51.022;7.082;2023-03-31T19:01:37;4.82;;;1.17;;
48327;SDS011;34136;51.022;7.082;2023-03-31T19:04:29;3.88;;;1.00;;
48327;SDS011;34136;51.022;7.082;2023-03-31T19:07:16;5.45;;;1.33;;
48327;SDS011;34136;51.022;7.082;2023-03-31T19:10:05;6.45;;;1.52;;
48327;SDS011;34136;51.022;7.082;2023-03-31T19:13:13;5.18;;;1.50;;
48327;SDS011;34136;51.022;7.082;2023-03-31T19:16:00;6.72;;;1.92;;
48327;SDS011;34136;51.022;7.082;2023-03-31T19:18:46;5.93;;;1.60;;
48327;SDS011;34136;51.022;7.082;2023-03-31T19:21:32;8.77;;;1.58;;
48327;SDS011;34136;51.022;7.082;2023-03-31T19:24:21;5.90;;;1.25;;
48327;SDS011;34136;51.022;7.082;2023-03-31T19:27:08;4.00;;;1.05;;
48327;SDS011;34136;51.022;7.082;2023-03-31T19:29:55;2.95;;;1.05;;
48327;SDS011;34136;51.022;7.082;2023-03-31T19:33:05;4.88;;;1.40;;
48327;SDS011;34136;51.022;7.082;2023-03-31T19:35:51;6.00;;;1.40;;
48327;SDS011;34136;51.022;7.082;2023-03-31T19:38:37;3.30;;;1.25;;
48327;SDS011;34136;51.022;7.082;2023-03-31T19:41:24;3.15;;;0.90;;
48327;SDS011;34136;51.022;7.082;2023-03-31T19:44:10;5.35;;;1.52;;
48327;SDS011;34136;51.022;7.082;2023-03-31T19:46:56;4.32;;;1.30;;
48327;SDS011;34136;51.022;7.082;2023-03-31T19:49:43;4.82;;;1.13;;
48327;SDS011;34136;51.022;7.082;2023-03-31T19:52:38;3.95;;;1.17;;
48327;SDS011;34136;51.022;7.082;2023-03-31T23:05:33;5.00;;;0.70;;
48327;SDS011;34136;51.022;7.082;2023-03-31T23:08:19;2.00;;;0.80;;
48327;SDS011;34136;51.022;7.082;2023-03-31T23:11:07;2.17;;;0.63;;
48327;SDS011;34136;51.022;7.082;2023-03-31T23:13:54;2.42;;;0.73;;
48327;SDS011;34136;51.022;7.082;2023-03-31T23:16:41;3.22;;;0.90;;
48327;SDS011;34136;51.022;7.082;2023-03-31T23:19:27;4.72;;;1.10;;
48327;SDS011;34136;51.022;7.082;2023-03-31T23:22:13;3.45;;;0.75;;
48327;SDS011;34136;51.022;7.082;2023-03-31T23:24:59;2.53;;;0.80;;
48327;SDS011;34136;51.022;7.082;2023-03-31T23:27:46;3.88;;;0.93;;
48327;SDS011;34136;51.022;7.082;2023-03-31T23:30:32;2.75;;;0.63;;
48327;SDS011;34136;51.022;7.082;2023-03-31T23:33:18;5.35;;;1.00;;
48327;SDS011;34136;51.022;7.082;2023-03-31T23:36:05;2.80;;;0.82;;
48327;SDS011;34136;51.022;7.082;2023-03-31T23:38:52;3.40;;;1.08;;
48327;SDS011;34136;51.022;7.082;2023-03-31T23:41:39;4.03;;;1.00;;
48327;SDS011;34136;51.022;7.082;2023-03-31T23:44:26;4.60;;;0.85;;
48327;SDS011;34136;51.022;7.082;2023-03-31T23:47:12;3.22;;;0.80;;
48327;SDS011;34136;51.022;7.082;2023-03-31T23:49:58;2.15;;;0.57;;
48327;SDS011;34136;51.022;7.082;2023-03-31T23:52:44;2.80;;;0.80;;
48327;SDS011;34136;51.022;7.082;2023-03-31T23:55:30;2.13;;;0.85;;
48327;SDS011;34136;51.022;7.082;2023-03-31T23:58:16;4.22;;;0.77;;
